createdAt,value
2019-02-25T00:02:41.936Z,20.77
2019-02-25T00:05:45.777Z,21.20
2019-02-25T00:08:49.636Z,21.73
2019-02-25T00:11:53.492Z,22.60
2019-02-25T00:14:57.335Z,22.17
2019-02-25T00:18:01.211Z,21.70
2019-02-25T00:21:05.072Z,21.60
2019-02-25T00:24:08.969Z,22.83
2019-02-25T00:27:12.796Z,23.80
2019-02-25T00:30:16.792Z,21.23
2019-02-25T00:33:20.628Z,21.53
2019-02-25T00:36:24.507Z,22.10
2019-02-25T00:39:28.358Z,22.53
2019-02-25T00:42:32.229Z,21.53
2019-02-25T00:45:36.116Z,20.90
2019-02-25T00:48:39.983Z,20.63
2019-02-25T00:51:43.849Z,20.40
2019-02-25T00:54:47.704Z,21.27
2019-02-25T00:57:51.601Z,20.20
2019-02-25T01:00:55.411Z,21.23
2019-02-25T01:03:59.290Z,22.23
2019-02-25T01:07:03.332Z,21.53
2019-02-25T01:10:09.771Z,22.70
2019-02-25T01:13:13.732Z,21.70
2019-02-25T01:16:17.607Z,23.50
2019-02-25T01:19:21.437Z,22.93
2019-02-25T01:22:25.291Z,21.00
2019-02-25T01:25:29.161Z,22.43
2019-02-25T01:28:33.003Z,21.47
2019-02-25T01:31:36.878Z,21.53
2019-02-25T01:34:40.711Z,21.73
2019-02-25T01:37:44.561Z,20.17
2019-02-25T01:40:48.417Z,22.07
2019-02-25T01:43:52.282Z,20.87
2019-02-25T01:46:56.146Z,21.80
2019-02-25T01:50:00.017Z,21.63
2019-02-25T01:53:03.895Z,21.87
2019-02-25T01:56:07.761Z,21.57
2019-02-25T01:59:11.622Z,22.23
2019-02-25T02:02:15.469Z,19.60
2019-02-25T02:05:19.364Z,21.03
2019-02-25T02:08:23.212Z,20.70
2019-02-25T02:11:27.112Z,19.87
2019-02-25T02:14:30.951Z,19.80
2019-02-25T02:17:34.811Z,21.77
2019-02-25T02:20:38.681Z,21.40
2019-02-25T02:23:42.500Z,20.03
2019-02-25T02:26:46.329Z,20.30
2019-02-25T02:29:50.187Z,20.80
2019-02-25T02:32:54.058Z,20.50
2019-02-25T02:35:57.887Z,20.03
2019-02-25T02:39:01.758Z,20.33
2019-02-25T02:42:18.851Z,20.50
2019-02-25T02:45:37.749Z,20.00
2019-02-25T02:48:44.553Z,20.07
2019-02-25T02:51:48.396Z,20.07
2019-02-25T02:54:52.271Z,20.13
2019-02-25T02:57:56.117Z,20.07
2019-02-25T03:00:59.972Z,18.73
2019-02-25T03:04:03.821Z,20.53
2019-02-25T03:07:07.644Z,20.17
2019-02-25T03:10:13.546Z,19.20
2019-02-25T03:13:17.374Z,19.67
2019-02-25T03:16:21.252Z,19.47
2019-02-25T03:19:25.144Z,18.67
2019-02-25T03:22:28.982Z,20.50
2019-02-25T03:25:32.872Z,19.33
2019-02-25T03:28:36.711Z,20.27
2019-02-25T03:31:40.558Z,19.40
2019-02-25T03:34:44.377Z,20.23
2019-02-25T03:37:48.294Z,19.10
2019-02-25T03:40:52.116Z,20.80
2019-02-25T03:43:56.122Z,19.80
2019-02-25T03:47:00.008Z,19.20
2019-02-25T03:50:04.234Z,20.03
2019-02-25T03:53:08.102Z,19.97
2019-02-25T03:56:12.036Z,21.73
2019-02-25T03:59:15.917Z,19.97
2019-02-25T04:02:19.820Z,19.90
2019-02-25T04:05:23.661Z,19.80
2019-02-25T04:08:27.500Z,19.23
2019-02-25T04:11:31.356Z,19.87
2019-02-25T04:14:35.262Z,19.93
2019-02-25T04:17:39.106Z,19.47
2019-02-25T04:20:42.971Z,19.73
2019-02-25T04:23:46.808Z,20.83
2019-02-25T04:26:50.693Z,20.27
2019-02-25T04:29:54.547Z,19.80
2019-02-25T04:32:58.409Z,20.20
2019-02-25T04:36:02.257Z,19.43
2019-02-25T04:39:06.422Z,19.43
2019-02-25T04:42:10.301Z,20.03
2019-02-25T04:45:18.646Z,19.50
2019-02-25T04:48:22.531Z,20.13
2019-02-25T04:51:26.362Z,19.97
2019-02-25T04:54:30.246Z,20.43
2019-02-25T04:57:34.072Z,19.90
2019-02-25T05:00:37.968Z,20.37
2019-02-25T05:03:41.771Z,17.60
2019-02-25T05:06:45.652Z,18.27
2019-02-25T05:09:49.556Z,18.90
2019-02-25T05:12:54.958Z,18.23
2019-02-25T05:15:58.821Z,19.20
2019-02-25T05:19:02.691Z,18.03
2019-02-25T05:22:06.539Z,18.60
2019-02-25T05:25:12.098Z,18.97
2019-02-25T05:28:15.977Z,17.17
2019-02-25T05:31:19.858Z,17.47
2019-02-25T05:34:23.723Z,17.53
2019-02-25T05:37:27.591Z,17.57
2019-02-25T05:40:31.421Z,17.63
2019-02-25T05:43:35.302Z,18.30
2019-02-25T05:46:39.130Z,17.70
2019-02-25T05:49:43.007Z,17.97
2019-02-25T05:52:46.957Z,18.10
2019-02-25T05:55:50.759Z,18.57
2019-02-25T05:58:54.584Z,17.73
2019-02-25T06:01:58.436Z,17.83
2019-02-25T06:05:02.301Z,18.67
2019-02-25T06:08:06.135Z,19.77
2019-02-25T06:11:10.012Z,18.40
2019-02-25T06:14:13.911Z,19.20
2019-02-25T06:17:17.772Z,18.97
2019-02-25T06:20:21.677Z,19.23
2019-02-25T06:23:25.513Z,19.17
2019-02-25T06:26:29.318Z,21.33
2019-02-25T06:29:33.162Z,21.60
2019-02-25T06:32:37.042Z,21.83
2019-02-25T06:35:40.892Z,22.73
2019-02-25T06:38:44.765Z,23.10
2019-02-25T06:41:48.637Z,22.83
2019-02-25T06:44:54.040Z,23.17
2019-02-25T06:47:57.917Z,24.73
2019-02-25T06:51:03.118Z,25.47
2019-02-25T06:54:06.947Z,24.63
2019-02-25T06:57:10.828Z,24.73
2019-02-25T07:00:17.171Z,24.13
2019-02-25T07:03:21.027Z,24.63
2019-02-25T07:06:26.496Z,23.60
2019-02-25T07:09:32.002Z,25.37
2019-02-25T07:12:37.451Z,24.23
2019-02-25T07:15:55.114Z,23.40
2019-02-25T07:19:12.720Z,23.33
2019-02-25T07:22:21.008Z,23.63
2019-02-25T07:25:29.137Z,22.60
2019-02-25T07:28:46.818Z,21.20
2019-02-25T07:32:01.012Z,21.30
2019-02-25T07:35:10.827Z,20.50
2019-02-25T07:38:19.256Z,19.33
2019-02-25T07:41:24.722Z,19.50
2019-02-25T07:44:30.160Z,19.47
2019-02-25T07:47:47.678Z,19.30
2019-02-25T07:51:02.083Z,19.07
2019-02-25T07:54:07.529Z,19.60
2019-02-25T07:57:25.356Z,20.07
2019-02-25T08:00:33.532Z,19.13
2019-02-25T08:03:42.031Z,19.60
2019-02-25T08:06:47.451Z,18.77
2019-02-25T08:09:55.931Z,18.60
2019-02-25T08:13:16.543Z,18.50
2019-02-25T08:16:21.933Z,18.30
2019-02-25T08:19:30.320Z,18.20
2019-02-25T08:26:19.915Z,18.53
2019-02-25T08:29:41.585Z,19.07
2019-02-25T08:32:46.995Z,18.17
2019-02-25T08:36:11.632Z,19.10
2019-02-25T08:39:19.863Z,17.90
2019-02-25T08:42:27.295Z,18.00
2019-02-25T08:45:35.453Z,18.63
2019-02-25T08:48:56.304Z,18.20
2019-02-25T08:52:00.665Z,18.80
2019-02-25T08:55:05.816Z,18.63
2019-02-25T08:58:09.636Z,18.63
2019-02-25T09:01:15.375Z,19.27
2019-02-25T09:04:18.972Z,18.90
2019-02-25T09:07:22.817Z,19.53
2019-02-25T09:10:26.656Z,19.33
2019-02-25T09:13:30.509Z,19.57
2019-02-25T09:16:34.346Z,19.67
2019-02-25T09:19:38.204Z,19.93
2019-02-25T09:22:42.031Z,20.47
2019-02-25T09:25:45.893Z,19.20
2019-02-25T09:28:49.762Z,20.00
2019-02-25T09:31:53.656Z,20.73
2019-02-25T09:34:57.476Z,20.10
2019-02-25T09:38:01.319Z,21.33
2019-02-25T09:41:05.208Z,21.40
2019-02-25T09:44:09.046Z,21.57
2019-02-25T09:47:12.892Z,22.10
2019-02-25T09:50:20.422Z,21.47
2019-02-25T09:53:24.312Z,21.30
2019-02-25T09:56:28.115Z,21.67
2019-02-25T09:59:32.001Z,22.23
2019-02-25T10:02:35.842Z,21.90
2019-02-25T10:05:39.717Z,21.93
2019-02-25T10:08:43.592Z,22.90
2019-02-25T10:11:48.753Z,22.90
2019-02-25T10:14:53.009Z,22.80
2019-02-25T10:17:56.823Z,22.43
2019-02-25T10:21:00.676Z,23.17
2019-02-25T10:24:04.518Z,22.87
2019-02-25T10:27:08.391Z,23.13
2019-02-25T10:30:18.973Z,22.47
2019-02-25T10:33:22.861Z,23.73
2019-02-25T10:36:26.762Z,24.13
2019-02-25T10:39:30.616Z,24.57
2019-02-25T10:42:36.092Z,24.43
2019-02-25T10:45:41.156Z,23.97
2019-02-25T10:48:47.346Z,24.73
2019-02-25T10:51:50.923Z,23.90
2019-02-25T10:54:56.199Z,26.33
2019-02-25T10:58:01.994Z,28.17
2019-02-25T11:01:08.478Z,26.87
2019-02-25T11:04:11.343Z,25.67
2019-02-25T11:07:15.199Z,27.37
2019-02-25T11:10:23.635Z,27.40
2019-02-25T11:13:28.148Z,27.00
2019-02-25T11:16:33.072Z,27.33
2019-02-25T11:19:36.931Z,27.37
2019-02-25T11:22:42.424Z,27.83
2019-02-25T11:25:46.250Z,26.10
2019-02-25T11:28:50.115Z,26.63
2019-02-25T11:31:55.550Z,27.23
2019-02-25T11:35:01.187Z,26.57
2019-02-25T11:38:04.972Z,29.07
2019-02-25T11:41:11.043Z,26.13
2019-02-25T11:44:14.315Z,27.03
2019-02-25T11:47:18.123Z,28.27
2019-02-25T11:50:22.063Z,27.50
2019-02-25T11:53:25.935Z,27.03
2019-02-25T11:56:31.200Z,27.23
2019-02-25T11:59:35.211Z,27.77
2019-02-25T12:02:39.035Z,27.23
2019-02-25T12:05:43.311Z,29.20
2019-02-25T12:08:47.273Z,23.83
2019-02-25T12:11:51.368Z,26.20
2019-02-25T12:14:55.464Z,25.70
2019-02-25T12:17:59.373Z,21.93
2019-02-25T12:21:05.038Z,25.53
2019-02-25T12:24:08.888Z,25.53
2019-02-25T12:27:12.783Z,22.53
2019-02-25T12:30:25.133Z,25.30
2019-02-25T12:33:28.977Z,26.17
2019-02-25T12:36:33.011Z,25.10
2019-02-25T12:39:36.927Z,26.07
2019-02-25T12:42:40.912Z,26.63
2019-02-25T12:45:44.776Z,26.43
2019-02-25T12:48:48.621Z,27.00
2019-02-25T12:51:52.452Z,25.50
2019-02-25T12:54:56.333Z,26.37
2019-02-25T12:58:00.190Z,24.83
2019-02-25T13:01:04.055Z,26.53
2019-02-25T13:04:08.012Z,25.60
2019-02-25T13:07:12.163Z,24.27
2019-02-25T13:10:16.915Z,23.57
2019-02-25T13:13:20.987Z,25.40
2019-02-25T13:16:24.823Z,24.73
2019-02-25T13:19:28.671Z,24.07
2019-02-25T13:22:32.496Z,24.77
2019-02-25T13:25:36.366Z,24.57
2019-02-25T13:28:40.322Z,23.90
2019-02-25T13:31:44.161Z,25.40
2019-02-25T13:34:48.014Z,24.17
2019-02-25T13:37:51.893Z,24.03
2019-02-25T13:40:55.852Z,25.13
2019-02-25T13:43:59.776Z,24.50
2019-02-25T13:47:03.741Z,24.10
2019-02-25T13:50:12.419Z,25.33
2019-02-25T13:53:16.260Z,25.00
2019-02-25T13:56:20.335Z,24.43
2019-02-25T13:59:24.208Z,25.60
2019-02-25T14:02:28.057Z,24.23
2019-02-25T14:05:32.224Z,25.07
2019-02-25T14:08:36.062Z,25.50
2019-02-25T14:11:39.933Z,25.87
2019-02-25T14:14:43.774Z,25.43
2019-02-25T14:17:47.682Z,27.20
2019-02-25T14:20:51.540Z,25.30
2019-02-25T14:23:57.629Z,26.17
2019-02-25T14:27:01.103Z,25.13
2019-02-25T14:30:09.385Z,26.03
2019-02-25T14:33:14.845Z,27.37
2019-02-25T14:36:19.897Z,25.53
2019-02-25T14:39:27.849Z,24.53
2019-02-25T14:42:31.038Z,27.47
2019-02-25T14:45:34.920Z,27.70
2019-02-25T14:48:38.882Z,26.60
2019-02-25T14:51:43.069Z,26.07
2019-02-25T14:54:47.204Z,26.57
2019-02-25T14:57:51.207Z,28.07
2019-02-25T15:00:55.143Z,26.87
2019-02-25T15:04:00.526Z,25.63
2019-02-25T15:07:06.864Z,25.33
2019-02-25T15:10:11.799Z,25.37
2019-02-25T15:13:15.665Z,25.77
2019-02-25T15:16:19.483Z,26.97
2019-02-25T15:19:23.463Z,26.87
2019-02-25T15:22:28.225Z,26.70
2019-02-25T15:25:33.955Z,27.07
2019-02-25T15:28:38.273Z,26.40
2019-02-25T15:31:44.418Z,28.10
2019-02-25T15:34:48.671Z,26.53
2019-02-25T15:37:55.156Z,26.73
2019-02-25T15:41:00.029Z,27.33
2019-02-25T15:44:06.555Z,28.53
2019-02-25T15:47:11.272Z,27.93
2019-02-25T15:50:18.264Z,30.67
2019-02-25T15:53:22.161Z,29.50
2019-02-25T15:56:26.016Z,30.73
2019-02-25T15:59:32.230Z,31.80
2019-02-25T16:02:35.393Z,32.43
2019-02-25T16:05:39.214Z,34.90
2019-02-25T16:08:45.302Z,33.03
2019-02-25T16:11:49.872Z,33.80
2019-02-25T16:14:55.192Z,30.77
2019-02-25T16:17:59.286Z,34.03
2019-02-25T16:21:03.189Z,34.87
2019-02-25T16:24:11.683Z,37.47
2019-02-25T16:27:12.999Z,39.23
2019-02-25T16:30:17.418Z,38.83
2019-02-25T16:33:24.086Z,36.13
2019-02-25T16:36:28.971Z,35.27
2019-02-25T16:39:33.514Z,37.50
2019-02-25T16:42:39.341Z,38.20
2019-02-25T16:45:46.669Z,36.00
2019-02-25T16:48:51.087Z,35.73
2019-02-25T16:51:57.202Z,38.75
2019-02-25T16:55:00.794Z,37.63
2019-02-25T16:58:06.977Z,38.20
2019-02-25T17:01:10.994Z,40.00
2019-02-25T17:04:16.818Z,39.87
2019-02-25T17:07:22.695Z,42.87
2019-02-25T17:10:29.125Z,42.67
2019-02-25T17:13:33.091Z,45.97
2019-02-25T17:16:37.964Z,44.23
2019-02-25T17:19:42.396Z,48.83
2019-02-25T17:22:46.241Z,60.45
2019-02-25T17:25:50.303Z,53.77
2019-02-25T17:28:54.109Z,54.97
2019-02-25T17:31:59.690Z,77.47
2019-02-25T17:35:04.905Z,72.60
2019-02-25T17:38:08.968Z,52.73
2019-02-25T17:41:13.160Z,60.97
2019-02-25T17:44:17.909Z,51.03
2019-02-25T17:47:24.320Z,45.40
2019-02-25T17:50:30.274Z,47.53
2019-02-25T17:53:34.146Z,47.40
2019-02-25T17:56:37.960Z,44.70
2019-02-25T17:59:43.995Z,45.13
2019-02-25T18:02:47.652Z,44.77
2019-02-25T18:05:51.556Z,47.33
2019-02-25T18:08:57.168Z,43.70
2019-02-25T18:12:02.237Z,45.50
2019-02-25T18:15:26.092Z,47.13
2019-02-25T18:18:29.645Z,48.30
2019-02-25T18:21:36.730Z,46.47
2019-02-25T18:24:43.299Z,50.10
2019-02-25T18:27:48.310Z,49.27
2019-02-25T18:30:52.013Z,49.97
2019-02-25T18:33:55.997Z,48.50
2019-02-25T18:37:01.272Z,45.43
2019-02-25T18:40:09.467Z,45.23
2019-02-25T18:43:13.632Z,44.23
2019-02-25T18:46:18.987Z,41.57
2019-02-25T18:49:23.093Z,43.00
2019-02-25T18:52:27.409Z,43.00
2019-02-25T18:55:34.167Z,41.20
2019-02-25T18:58:39.573Z,42.53
2019-02-25T19:01:45.352Z,45.87
2019-02-25T19:04:51.414Z,46.60
2019-02-25T19:07:56.036Z,43.77
2019-02-25T19:11:01.095Z,45.53
2019-02-25T19:14:05.854Z,45.13
2019-02-25T19:17:09.803Z,43.57
2019-02-25T19:20:14.161Z,43.37
2019-02-25T19:23:18.243Z,41.33
2019-02-25T19:26:22.129Z,41.70
2019-02-25T19:29:28.037Z,39.83
2019-02-25T19:32:31.671Z,44.83
2019-02-25T19:35:38.331Z,42.77
2019-02-25T19:38:43.681Z,42.10
2019-02-25T19:41:47.201Z,40.60
2019-02-25T19:45:10.092Z,42.30
2019-02-25T19:48:14.255Z,40.33
2019-02-25T19:51:20.629Z,41.07
2019-02-25T19:54:25.290Z,40.17
2019-02-25T19:57:30.831Z,37.97
2019-02-25T20:00:35.953Z,37.47
2019-02-25T20:03:42.493Z,36.60
2019-02-25T20:06:53.760Z,36.20
2019-02-25T20:09:58.761Z,38.70
2019-02-25T20:13:05.685Z,36.80
2019-02-25T20:16:08.417Z,39.27
2019-02-25T20:19:13.704Z,38.80
2019-02-25T20:22:18.430Z,36.80
2019-02-25T20:25:24.503Z,37.57
2019-02-25T20:28:28.473Z,35.80
2019-02-25T20:31:32.731Z,34.07
2019-02-25T20:34:36.582Z,34.93
2019-02-25T20:37:40.534Z,34.10
2019-02-25T20:40:47.075Z,34.90
2019-02-25T20:43:53.960Z,35.50
2019-02-25T20:46:57.186Z,35.93
2019-02-25T20:50:03.190Z,34.83
2019-02-25T20:53:08.443Z,34.67
2019-02-25T20:56:11.918Z,33.90
2019-02-25T20:59:15.726Z,34.73
2019-02-25T21:02:21.136Z,35.27
2019-02-25T21:05:27.279Z,34.40
2019-02-25T21:08:30.643Z,33.07
2019-02-25T21:11:34.533Z,34.77
2019-02-25T21:14:40.311Z,34.80
2019-02-25T21:17:44.379Z,33.33
2019-02-25T21:20:49.320Z,34.50
2019-02-25T21:23:53.821Z,35.40
2019-02-25T21:26:59.657Z,34.17
2019-02-25T21:30:04.372Z,36.10
2019-02-25T21:33:13.262Z,36.77
2019-02-25T21:36:15.012Z,39.00
2019-02-25T21:39:19.200Z,35.73
2019-02-25T21:42:24.681Z,37.23
2019-02-25T21:45:30.150Z,37.33
2019-02-25T21:48:34.882Z,40.70
2019-02-25T21:51:41.490Z,43.37
2019-02-25T21:54:45.113Z,41.17
2019-02-25T21:57:48.951Z,40.03
2019-02-25T22:00:52.843Z,41.37
2019-02-25T22:03:56.687Z,39.17
2019-02-25T22:07:02.485Z,42.27
2019-02-25T22:10:08.755Z,38.83
2019-02-25T22:13:14.169Z,39.63
2019-02-25T22:16:18.122Z,38.47
2019-02-25T22:19:21.960Z,37.00
2019-02-25T22:22:26.906Z,35.53
2019-02-25T22:25:31.331Z,36.20
2019-02-25T22:28:37.037Z,35.80
2019-02-25T22:31:41.944Z,35.80
2019-02-25T22:34:46.172Z,33.73
2019-02-25T22:37:52.770Z,34.37
2019-02-25T22:40:57.358Z,34.53
2019-02-25T22:44:02.032Z,32.87
2019-02-25T22:47:09.237Z,33.53
2019-02-25T22:50:15.138Z,32.73
2019-02-25T22:53:18.671Z,30.60
2019-02-25T22:56:23.726Z,31.33
2019-02-25T22:59:28.003Z,31.70
2019-02-25T23:02:31.817Z,32.60
2019-02-25T23:05:39.058Z,30.93
2019-02-25T23:08:44.024Z,32.13
2019-02-25T23:11:48.349Z,32.13
2019-02-25T23:14:53.822Z,30.43
2019-02-25T23:18:04.846Z,32.17
2019-02-25T23:21:03.209Z,30.83
2019-02-25T23:24:07.374Z,32.00
2019-02-25T23:27:11.646Z,32.73
2019-02-25T23:30:15.884Z,32.97
2019-02-25T23:33:22.040Z,34.67
2019-02-25T23:36:26.589Z,31.63
2019-02-25T23:39:32.410Z,29.67
2019-02-25T23:42:37.310Z,30.87
2019-02-25T23:45:42.142Z,29.67
2019-02-25T23:48:47.183Z,29.33
2019-02-25T23:51:51.034Z,29.43
2019-02-25T23:54:56.386Z,29.50
2019-02-25T23:58:00.357Z,29.30
